首页
METAR-TAF:

METAR-TAF

机场 :

東密德蘭機場

東米德蘭, 英格兰

纬度: 52-50N, 经度: 001-20W, 海拔: 94米

当前天气观测

该预报发布于20分钟前的10:20 UTC
风速5节,风向西,在西北之间变化
温度 19°C
湿度 40%
气压 1036 hPa
能见度10公里或以上
1500米以下无云,无积雨云

METAR: EGNX 261020Z 26005KT 170V320 CAVOK 19/05 Q1036

时间: 11:40 (10:40 UTC)

预报

该预报发布于5小时和43分钟前的04:57 UTC
预报有效从26日的 06点(UTC)到 27日的 06点(UTC)
风速8节,风向西转西北
能见度10公里或以上
散云层高于3500英尺
几率 30%
从 27日的 02点(UTC)到 27日的 06点(UTC)
能見度: 8000

TAF: EGNX 260457Z 2606/2706 29008KT 9999 SCT035 PROB30 2702/2706 8000

超过4000个机场的气象观测和天气预报(METAR&TAF报告)。

可查询的气象台以黄色和红色小点在地图上表示。

将鼠标移到小点上方,可查看气象台名称。

然后点击查看天气观测和预报。

如需切换地图:点击带黑十字的绿色按钮放大地图;点击带横线的绿色按钮缩小地图;或者点击绿色箭头查看邻近地区的地图。


METAR-TAF: